Terminal Aerodrome Forecast
Issued by NWS Billings, MT

Home | Current Version | Previous Version | Text Only | Print | Product List | Glossary On
Versions: 1 2 3 4 5 6 7 8 9 10 11 12 13 14 15 16 17 18 19 20 21 22 23 24 25
000
FTUS45 KBYZ 221734
TAFSHR
TAF
KSHR 221734Z 2218/2318 14015KT P6SM BKN150
     FM221900 14015G20KT P6SM VCTS SCT050CB BKN100
     FM230200 15008KT P6SM SCT050 BKN100=

USA.gov is the U.S. government's official web portal to all federal, state and local government web resources and services.